createdAt,value
2022-09-03T00:00:12.150Z,61.76
2022-09-03T00:03:02.623Z,61.92
2022-09-03T00:05:48.636Z,61.99
2022-09-03T00:08:21.134Z,62.08
2022-09-03T00:11:40.665Z,62.35
2022-09-03T00:14:28.576Z,62.08
2022-09-03T00:17:03.917Z,62.58
2022-09-03T00:19:36.311Z,62.73
2022-09-03T00:22:14.316Z,62.74
2022-09-03T00:24:44.169Z,62.37
2022-09-03T00:27:20.735Z,62.84
2022-09-03T00:30:17.024Z,63.35
2022-09-03T00:32:57.118Z,63.15
2022-09-03T00:35:31.865Z,63.52
2022-09-03T00:38:00.674Z,63.55
2022-09-03T00:41:18.627Z,63.57
2022-09-03T00:44:38.543Z,63.90
2022-09-03T00:47:29.910Z,64.19
2022-09-03T00:50:04.035Z,63.78
2022-09-03T00:53:27.622Z,64.30
2022-09-03T00:56:42.592Z,64.50
2022-09-03T00:59:33.715Z,64.64
2022-09-03T01:02:42.672Z,65.03
2022-09-03T01:05:39.995Z,64.72
2022-09-03T01:08:06.871Z,64.67
2022-09-03T01:11:18.696Z,64.91
2022-09-03T01:14:21.047Z,64.94
2022-09-03T01:17:00.243Z,65.24
2022-09-03T01:19:59.832Z,65.27
2022-09-03T01:22:50.644Z,65.30
2022-09-03T01:25:49.549Z,65.08
2022-09-03T01:28:35.262Z,65.51
2022-09-03T01:31:57.900Z,65.38
2022-09-03T01:35:02.441Z,65.83
2022-09-03T01:37:45.407Z,65.67
2022-09-03T01:40:25.941Z,65.78
2022-09-03T01:43:05.048Z,66.04
2022-09-03T01:45:54.374Z,65.93
2022-09-03T01:48:43.560Z,66.02
2022-09-03T01:54:20.921Z,66.57
2022-09-03T01:57:37.008Z,66.37
2022-09-03T02:00:04.389Z,66.98
2022-09-03T02:02:39.123Z,67.05
2022-09-03T02:05:14.393Z,67.25
2022-09-03T02:07:47.313Z,67.22
2022-09-03T02:10:21.588Z,67.50
2022-09-03T02:12:58.953Z,67.89
2022-09-03T02:15:27.735Z,68.15
2022-09-03T02:18:00.398Z,67.77
2022-09-03T02:20:30.020Z,68.30
2022-09-03T02:22:58.844Z,68.58
2022-09-03T02:25:37.239Z,68.53
2022-09-03T02:28:07.479Z,68.40
2022-09-03T02:30:44.863Z,68.73
2022-09-03T02:33:12.325Z,68.89
2022-09-03T02:35:40.994Z,69.12
2022-09-03T02:38:25.747Z,68.88
2022-09-03T02:40:56.484Z,69.10
2022-09-03T02:44:01.456Z,69.42
2022-09-03T02:46:39.863Z,69.76
2022-09-03T02:49:07.446Z,69.47
2022-09-03T02:51:40.798Z,69.41
2022-09-03T02:54:10.770Z,69.92
2022-09-03T02:56:38.095Z,69.97
2022-09-03T02:59:07.932Z,70.36
2022-09-03T03:01:35.841Z,70.59
2022-09-03T03:04:03.580Z,70.66
2022-09-03T03:06:30.519Z,70.59
2022-09-03T03:08:57.769Z,70.46
2022-09-03T03:11:26.280Z,70.77
2022-09-03T03:13:53.466Z,70.87
2022-09-03T03:16:20.702Z,71.44
2022-09-03T03:18:47.741Z,71.78
2022-09-03T03:21:18.233Z,71.52
2022-09-03T03:23:45.574Z,71.64
2022-09-03T03:26:18.430Z,71.72
2022-09-03T03:28:49.667Z,71.84
2022-09-03T03:31:20.939Z,72.11
2022-09-03T03:33:56.019Z,72.04
2022-09-03T03:36:26.123Z,72.25
2022-09-03T03:38:58.447Z,72.71
2022-09-03T03:41:34.239Z,72.33
2022-09-03T03:44:05.589Z,72.82
2022-09-03T03:46:39.833Z,72.63
2022-09-03T03:49:08.642Z,72.86
2022-09-03T03:51:37.242Z,72.58
2022-09-03T03:54:05.710Z,72.86
2022-09-03T03:56:34.716Z,72.83
2022-09-03T03:59:02.139Z,73.04
2022-09-03T04:01:29.662Z,73.20
2022-09-03T04:03:59.112Z,73.27
2022-09-03T04:06:26.797Z,73.04
2022-09-03T04:08:53.821Z,73.15
2022-09-03T04:11:23.409Z,73.24
2022-09-03T04:13:51.730Z,73.62
2022-09-03T04:16:22.233Z,73.50
2022-09-03T04:18:49.961Z,73.90
2022-09-03T04:21:20.718Z,74.19
2022-09-03T04:23:49.867Z,74.39
2022-09-03T04:26:20.852Z,74.00
2022-09-03T04:28:48.457Z,74.20
2022-09-03T04:31:18.256Z,74.40
2022-09-03T04:33:45.420Z,74.67
2022-09-03T04:36:16.942Z,74.81
2022-09-03T04:38:45.768Z,74.83
2022-09-03T04:41:16.308Z,74.15
2022-09-03T04:43:43.954Z,74.54
2022-09-03T04:46:16.456Z,74.72
2022-09-03T04:48:48.136Z,75.13
2022-09-03T04:51:18.081Z,75.05
2022-09-03T04:53:47.541Z,74.99
2022-09-03T04:56:15.131Z,74.60
2022-09-03T04:58:44.162Z,74.55
2022-09-03T05:01:16.282Z,74.95
2022-09-03T05:03:44.339Z,74.67
2022-09-03T05:06:12.086Z,74.93
2022-09-03T05:08:40.240Z,74.56
2022-09-03T05:11:08.252Z,75.02
2022-09-03T05:13:40.192Z,74.93
2022-09-03T05:16:10.070Z,74.78
2022-09-03T05:18:37.441Z,74.64
2022-09-03T05:21:14.824Z,74.98
2022-09-03T05:23:45.492Z,74.19
2022-09-03T05:26:16.144Z,74.21
2022-09-03T05:28:44.857Z,74.36
2022-09-03T05:31:14.044Z,74.38
2022-09-03T05:33:44.451Z,74.08
2022-09-03T05:36:23.147Z,73.87
2022-09-03T05:38:51.125Z,73.34
2022-09-03T05:41:19.256Z,73.11
2022-09-03T05:43:53.464Z,72.92
2022-09-03T05:46:20.708Z,72.53
2022-09-03T05:48:47.638Z,72.56
2022-09-03T05:51:17.266Z,72.90
2022-09-03T05:53:48.280Z,72.75
2022-09-03T05:56:21.061Z,72.44
2022-09-03T05:58:54.400Z,72.32
2022-09-03T06:01:37.117Z,71.24
2022-09-03T06:04:07.530Z,71.44
2022-09-03T06:06:37.814Z,71.25
2022-09-03T06:09:08.440Z,71.18
2022-09-03T06:11:38.051Z,70.48
2022-09-03T06:14:08.549Z,70.09
2022-09-03T06:16:45.323Z,69.59
2022-09-03T06:19:14.164Z,70.10
2022-09-03T06:21:44.245Z,69.29
2022-09-03T06:24:14.862Z,69.18
2022-09-03T06:26:43.046Z,68.32
2022-09-03T06:29:10.628Z,68.34
2022-09-03T06:31:37.902Z,67.50
2022-09-03T06:34:05.950Z,67.26
2022-09-03T06:36:33.456Z,66.97
2022-09-03T06:39:01.560Z,66.10
2022-09-03T06:41:35.286Z,66.54
2022-09-03T06:44:06.012Z,66.30
2022-09-03T06:46:36.354Z,66.00
2022-09-03T06:49:03.368Z,65.52
2022-09-03T06:51:33.232Z,64.94
2022-09-03T06:54:10.482Z,64.71
2022-09-03T06:56:41.268Z,64.75
2022-09-03T06:59:12.153Z,64.01
2022-09-03T07:01:45.070Z,64.07
2022-09-03T07:04:16.901Z,64.37
2022-09-03T07:06:46.462Z,64.19
2022-09-03T07:09:15.326Z,63.36
2022-09-03T07:11:48.015Z,63.19
2022-09-03T07:14:20.347Z,62.90
2022-09-03T07:16:49.762Z,62.54
2022-09-03T07:19:17.671Z,62.54
2022-09-03T07:21:49.600Z,61.79
2022-09-03T07:24:19.807Z,61.73
2022-09-03T07:26:47.226Z,61.57
2022-09-03T07:29:15.941Z,60.94
2022-09-03T07:31:44.085Z,60.82
2022-09-03T07:34:13.576Z,61.18
2022-09-03T07:36:44.075Z,60.50
2022-09-03T07:39:13.914Z,60.30
2022-09-03T07:41:50.221Z,59.74
2022-09-03T07:44:21.476Z,59.56
2022-09-03T07:46:50.618Z,58.89
2022-09-03T07:49:17.983Z,58.21
2022-09-03T07:51:46.535Z,58.13
2022-09-03T07:54:13.476Z,58.05
2022-09-03T07:56:41.109Z,58.24
2022-09-03T07:59:09.026Z,57.83
2022-09-03T08:01:37.174Z,57.18
2022-09-03T08:04:09.881Z,56.49
2022-09-03T08:06:38.752Z,56.81
2022-09-03T08:09:11.440Z,56.04
2022-09-03T08:11:43.240Z,55.87
2022-09-03T08:14:13.327Z,55.94
2022-09-03T08:16:43.621Z,55.59
2022-09-03T08:19:13.373Z,55.69
2022-09-03T08:21:44.013Z,55.36
2022-09-03T08:24:12.366Z,55.78
2022-09-03T08:26:46.315Z,55.58
2022-09-03T08:29:14.902Z,54.47
2022-09-03T08:31:42.952Z,53.92
2022-09-03T08:34:11.838Z,53.57
2022-09-03T08:36:41.602Z,53.14
2022-09-03T08:39:11.005Z,53.11
2022-09-03T08:41:53.340Z,53.32
2022-09-03T08:45:08.825Z,52.94
2022-09-03T08:47:52.003Z,52.49
2022-09-03T08:50:28.359Z,52.14
2022-09-03T08:53:19.670Z,52.11
2022-09-03T08:55:58.536Z,51.54
2022-09-03T08:58:33.197Z,51.75
2022-09-03T09:01:45.969Z,50.92
2022-09-03T09:04:43.827Z,50.61
2022-09-03T09:07:27.348Z,49.94
2022-09-03T09:10:24.627Z,49.81
2022-09-03T09:13:28.872Z,49.45
2022-09-03T09:16:27.763Z,49.85
2022-09-03T09:19:13.826Z,48.96
2022-09-03T09:21:50.333Z,47.75
2022-09-03T09:24:26.512Z,48.08
2022-09-03T09:27:00.904Z,48.23
2022-09-03T09:29:33.309Z,48.49
2022-09-03T09:32:00.310Z,47.18
2022-09-03T09:34:27.759Z,47.66
2022-09-03T09:36:56.182Z,47.72
2022-09-03T09:39:23.874Z,47.98
2022-09-03T09:42:05.613Z,47.42
2022-09-03T09:44:32.594Z,46.80
2022-09-03T09:47:26.528Z,47.23
2022-09-03T09:50:00.434Z,47.47
2022-09-03T09:52:31.581Z,47.26
2022-09-03T09:55:19.160Z,47.14
2022-09-03T09:57:46.309Z,46.53
2022-09-03T10:00:19.858Z,45.48
2022-09-03T10:02:56.491Z,45.18
2022-09-03T10:05:27.336Z,45.44
2022-09-03T10:07:59.368Z,45.92
2022-09-03T10:10:29.044Z,45.94
2022-09-03T10:13:14.754Z,45.17
2022-09-03T10:15:56.117Z,45.40
2022-09-03T10:18:44.559Z,45.10
2022-09-03T10:21:12.939Z,44.78
2022-09-03T10:23:59.611Z,44.65
2022-09-03T10:26:32.342Z,44.44
2022-09-03T10:29:05.906Z,43.92
2022-09-03T10:32:22.972Z,44.25
2022-09-03T10:35:08.233Z,44.24
2022-09-03T10:38:03.299Z,44.52
2022-09-03T10:41:03.342Z,43.86
2022-09-03T10:44:38.671Z,43.54
2022-09-03T10:47:31.980Z,43.33
2022-09-03T10:50:17.320Z,42.26
2022-09-03T10:52:56.843Z,42.17
2022-09-03T10:55:48.638Z,42.14
2022-09-03T10:59:09.890Z,41.94
2022-09-03T11:02:10.544Z,41.43
2022-09-03T11:04:51.246Z,41.72
2022-09-03T11:07:23.426Z,41.98
2022-09-03T11:10:17.025Z,41.74
2022-09-03T11:12:53.175Z,41.85
2022-09-03T11:15:27.885Z,41.21
2022-09-03T11:18:12.894Z,41.19
2022-09-03T11:20:42.253Z,41.96
2022-09-03T11:23:13.434Z,41.81
2022-09-03T11:25:57.120Z,41.52
2022-09-03T11:28:53.379Z,40.85
2022-09-03T11:31:57.780Z,39.89
2022-09-03T11:34:32.653Z,40.49
2022-09-03T11:37:30.551Z,40.03
2022-09-03T11:40:17.432Z,39.86
2022-09-03T11:42:45.890Z,40.37
2022-09-03T11:45:27.999Z,39.62
2022-09-03T11:47:55.092Z,39.20
2022-09-03T11:50:26.531Z,39.36
2022-09-03T11:53:09.042Z,39.55
2022-09-03T11:56:04.264Z,38.32
2022-09-03T11:58:35.038Z,39.11
2022-09-03T12:01:08.326Z,39.04
2022-09-03T12:03:58.192Z,38.67
2022-09-03T12:06:49.655Z,38.70
2022-09-03T12:10:09.704Z,37.90
2022-09-03T12:12:59.547Z,38.03
2022-09-03T12:15:55.264Z,38.14
2022-09-03T12:18:34.237Z,38.25
2022-09-03T12:21:09.047Z,37.72
2022-09-03T12:23:51.417Z,36.63
2022-09-03T12:26:27.681Z,37.04
2022-09-03T12:28:59.910Z,37.41
2022-09-03T12:31:30.903Z,37.69
2022-09-03T12:34:20.290Z,37.49
2022-09-03T12:36:51.603Z,37.37
2022-09-03T12:42:24.282Z,38.23
2022-09-03T12:44:51.310Z,37.51
2022-09-03T12:47:39.294Z,36.55
2022-09-03T12:50:11.344Z,36.12
2022-09-03T12:52:54.334Z,36.17
2022-09-03T12:55:37.024Z,36.16
2022-09-03T12:58:27.441Z,35.62
2022-09-03T13:01:09.589Z,35.56
2022-09-03T13:04:21.491Z,35.24
2022-09-03T13:07:05.277Z,34.80
2022-09-03T13:09:37.139Z,34.31
2022-09-03T13:12:07.487Z,34.62
2022-09-03T13:14:47.183Z,35.07
2022-09-03T13:17:36.315Z,34.57
2022-09-03T13:20:49.970Z,34.86
2022-09-03T13:23:36.696Z,35.35
2022-09-03T13:26:26.831Z,35.10
2022-09-03T13:29:31.313Z,35.46
2022-09-03T13:32:42.393Z,35.43
2022-09-03T13:35:27.559Z,36.09
2022-09-03T13:38:03.323Z,36.33
2022-09-03T13:40:52.326Z,36.38
2022-09-03T13:43:42.483Z,35.82
2022-09-03T13:46:23.979Z,36.49
2022-09-03T13:49:29.753Z,36.58
2022-09-03T13:52:01.967Z,37.36
2022-09-03T13:54:48.666Z,37.35
2022-09-03T13:57:35.143Z,37.69
2022-09-03T14:00:11.876Z,37.88
2022-09-03T14:03:16.743Z,38.24
2022-09-03T14:06:27.966Z,39.05
2022-09-03T14:09:16.682Z,39.50
2022-09-03T14:12:20.240Z,39.26
2022-09-03T14:15:15.872Z,39.44
2022-09-03T14:18:39.359Z,40.03
2022-09-03T14:21:27.761Z,39.79
2022-09-03T14:24:17.185Z,40.71
2022-09-03T14:27:00.428Z,39.94
2022-09-03T14:29:33.940Z,39.76
2022-09-03T14:32:27.456Z,39.73
2022-09-03T14:35:31.698Z,39.57
2022-09-03T14:38:25.867Z,39.75
2022-09-03T14:41:14.180Z,39.54
2022-09-03T14:44:29.405Z,39.34
2022-09-03T14:47:35.179Z,38.53
2022-09-03T14:50:44.584Z,39.15
2022-09-03T14:54:17.217Z,38.61
2022-09-03T14:57:12.875Z,39.02
2022-09-03T15:00:10.310Z,39.61
2022-09-03T15:03:52.180Z,39.53
2022-09-03T15:06:33.716Z,39.43
2022-09-03T15:09:27.696Z,39.63
2022-09-03T15:12:01.852Z,39.75
2022-09-03T15:15:01.648Z,39.92
2022-09-03T15:18:02.877Z,39.40
2022-09-03T15:20:52.457Z,39.68
2022-09-03T15:24:00.769Z,39.30
2022-09-03T15:27:17.843Z,39.71
2022-09-03T15:30:09.581Z,39.42
2022-09-03T15:32:55.515Z,38.76
2022-09-03T15:36:08.945Z,38.46
2022-09-03T15:39:11.620Z,38.83
2022-09-03T15:41:46.564Z,38.97
2022-09-03T15:44:19.510Z,39.11
2022-09-03T15:47:10.394Z,39.11
2022-09-03T15:50:01.623Z,39.49
2022-09-03T15:52:55.139Z,39.73
2022-09-03T15:55:36.217Z,39.12
2022-09-03T15:58:12.058Z,39.12
2022-09-03T16:01:19.557Z,39.08
2022-09-03T16:04:09.535Z,39.56
2022-09-03T16:06:58.514Z,39.92
2022-09-03T16:09:34.766Z,40.21
2022-09-03T16:12:30.996Z,39.87
2022-09-03T16:15:10.717Z,39.65
2022-09-03T16:18:16.231Z,39.85
2022-09-03T16:20:57.106Z,40.07
2022-09-03T16:23:50.087Z,40.16
2022-09-03T16:26:27.425Z,39.37
2022-09-03T16:29:01.556Z,39.54
2022-09-03T16:32:06.087Z,39.75
2022-09-03T16:34:41.834Z,39.91
2022-09-03T16:37:45.279Z,40.18
2022-09-03T16:40:40.430Z,40.13
2022-09-03T16:43:39.494Z,40.17
2022-09-03T16:46:48.508Z,40.09
2022-09-03T16:49:40.185Z,40.32
2022-09-03T16:52:48.252Z,39.67
2022-09-03T16:55:30.268Z,40.12
2022-09-03T16:58:39.710Z,39.98
2022-09-03T17:01:57.615Z,40.33
2022-09-03T17:05:13.261Z,40.76
2022-09-03T17:08:18.404Z,40.67
2022-09-03T17:11:09.431Z,41.28
2022-09-03T17:13:47.270Z,40.75
2022-09-03T17:16:56.257Z,41.03
2022-09-03T17:19:51.884Z,40.42
2022-09-03T17:22:55.902Z,41.25
2022-09-03T17:25:35.526Z,41.45
2022-09-03T17:28:41.303Z,41.78
2022-09-03T17:31:31.805Z,41.66
2022-09-03T17:34:38.777Z,41.96
2022-09-03T17:37:41.542Z,41.75
2022-09-03T17:40:48.039Z,41.75
2022-09-03T17:43:32.308Z,41.77
2022-09-03T17:46:28.934Z,41.94
2022-09-03T17:49:00.470Z,42.11
2022-09-03T17:51:51.012Z,42.48
2022-09-03T17:54:23.832Z,42.35
2022-09-03T17:57:20.174Z,42.34
2022-09-03T18:00:10.956Z,42.42
2022-09-03T18:02:45.150Z,42.50
2022-09-03T18:05:41.646Z,41.95
2022-09-03T18:08:44.561Z,42.58
2022-09-03T18:11:23.870Z,42.75
2022-09-03T18:14:02.011Z,42.40
2022-09-03T18:16:34.527Z,42.29
2022-09-03T18:19:53.457Z,42.44
2022-09-03T18:22:45.216Z,42.86
2022-09-03T18:25:33.103Z,42.83
2022-09-03T18:28:26.099Z,42.93
2022-09-03T18:31:12.643Z,43.17
2022-09-03T18:33:58.799Z,43.17
2022-09-03T18:39:34.689Z,43.29
2022-09-03T18:43:00.624Z,43.55
2022-09-03T18:46:46.224Z,43.91
2022-09-03T18:49:30.126Z,44.13
2022-09-03T18:52:43.791Z,44.37
2022-09-03T18:56:04.667Z,44.59
2022-09-03T18:59:28.365Z,44.72
2022-09-03T19:02:15.224Z,44.87
2022-09-03T19:05:33.796Z,45.26
2022-09-03T19:08:49.402Z,45.69
2022-09-03T19:12:24.337Z,45.58
2022-09-03T19:15:42.743Z,45.27
2022-09-03T19:19:16.381Z,45.85
2022-09-03T19:22:26.826Z,46.01
2022-09-03T19:25:23.294Z,45.62
2022-09-03T19:28:25.658Z,46.15
2022-09-03T19:31:48.945Z,46.21
2022-09-03T19:34:42.251Z,46.36
2022-09-03T19:38:17.434Z,46.00
2022-09-03T19:41:24.730Z,46.30
2022-09-03T19:45:03.435Z,46.84
2022-09-03T19:48:21.266Z,46.70
2022-09-03T19:51:31.698Z,46.90
2022-09-03T19:54:21.990Z,47.00
2022-09-03T19:57:09.700Z,47.08
2022-09-03T20:00:02.920Z,47.13
2022-09-03T20:02:59.245Z,47.29
2022-09-03T20:05:46.052Z,47.72
2022-09-03T20:08:35.699Z,47.69
2022-09-03T20:11:05.405Z,47.72
2022-09-03T20:13:54.371Z,47.72
2022-09-03T20:16:58.428Z,48.89
2022-09-03T20:19:37.903Z,48.83
2022-09-03T20:22:47.635Z,49.02
2022-09-03T20:25:39.980Z,49.02
2022-09-03T20:28:41.298Z,48.81
2022-09-03T20:31:18.300Z,48.61
2022-09-03T20:34:15.628Z,48.88
2022-09-03T20:37:04.289Z,48.95
2022-09-03T20:40:14.994Z,49.53
2022-09-03T20:43:16.859Z,49.64
2022-09-03T20:46:21.446Z,50.26
2022-09-03T20:49:07.730Z,50.95
2022-09-03T20:51:57.989Z,51.64
2022-09-03T20:54:56.062Z,51.99
2022-09-03T20:58:11.031Z,52.21
2022-09-03T21:01:05.780Z,52.73
2022-09-03T21:03:51.498Z,53.14
2022-09-03T21:06:44.805Z,53.31
2022-09-03T21:09:33.018Z,53.65
2022-09-03T21:12:22.306Z,53.88
2022-09-03T21:15:14.569Z,53.92
2022-09-03T21:18:09.461Z,53.86
2022-09-03T21:21:16.445Z,54.05
2022-09-03T21:24:12.479Z,54.08
2022-09-03T21:26:46.250Z,54.52
2022-09-03T21:29:28.604Z,54.66
2022-09-03T21:32:15.587Z,54.78
2022-09-03T21:35:12.203Z,54.80
2022-09-03T21:37:50.057Z,55.06
2022-09-03T21:40:24.500Z,54.84
2022-09-03T21:43:21.438Z,55.17
2022-09-03T21:46:06.519Z,55.28
2022-09-03T21:48:47.557Z,55.50
2022-09-03T21:51:27.160Z,55.47
2022-09-03T21:54:24.246Z,55.68
2022-09-03T21:57:08.071Z,55.65
2022-09-03T21:59:59.200Z,55.52
2022-09-03T22:02:32.828Z,55.42
2022-09-03T22:05:01.694Z,56.16
2022-09-03T22:08:12.741Z,56.05
2022-09-03T22:11:12.037Z,56.45
2022-09-03T22:13:54.442Z,57.14
2022-09-03T22:17:03.101Z,56.75
2022-09-03T22:19:37.450Z,57.03
2022-09-03T22:22:16.752Z,57.39
2022-09-03T22:25:14.127Z,57.66
2022-09-03T22:27:58.539Z,57.94
2022-09-03T22:30:25.685Z,58.28
2022-09-03T22:33:30.567Z,58.54
2022-09-03T22:36:47.217Z,58.76
2022-09-03T22:39:40.090Z,59.16
2022-09-03T22:42:22.658Z,58.96
2022-09-03T22:45:19.164Z,59.36
2022-09-03T22:48:06.760Z,59.38
2022-09-03T22:51:02.769Z,59.51
2022-09-03T22:54:04.122Z,59.96
2022-09-03T22:56:37.066Z,59.78
2022-09-03T22:59:11.996Z,60.32
2022-09-03T23:01:57.607Z,60.33
2022-09-03T23:05:16.600Z,60.57
2022-09-03T23:08:15.695Z,60.55
2022-09-03T23:11:05.945Z,60.97
2022-09-03T23:13:49.453Z,60.98
2022-09-03T23:17:07.357Z,61.23
2022-09-03T23:22:41.774Z,61.77
2022-09-03T23:25:19.537Z,62.56
2022-09-03T23:27:55.243Z,62.05
2022-09-03T23:30:22.499Z,62.22
2022-09-03T23:32:57.772Z,62.22
2022-09-03T23:35:31.366Z,62.38
2022-09-03T23:38:23.386Z,62.74
2022-09-03T23:40:56.308Z,62.75
2022-09-03T23:44:01.163Z,63.08
2022-09-03T23:47:15.553Z,63.42
2022-09-03T23:49:48.208Z,63.64
2022-09-03T23:52:53.124Z,63.76
2022-09-03T23:55:57.053Z,64.28
2022-09-03T23:58:43.571Z,64.37
